createdAt,value
2018-09-14T00:02:53.374Z,17.13
2018-09-14T00:08:02.495Z,17.70
2018-09-14T00:13:12.560Z,18.03
2018-09-14T00:18:17.928Z,21.00
2018-09-14T00:23:24.286Z,17.73
2018-09-14T00:28:48.946Z,20.00
2018-09-14T00:33:59.218Z,19.70
2018-09-14T00:39:04.970Z,18.67
2018-09-14T00:44:10.751Z,21.17
2018-09-14T00:49:16.961Z,25.43
2018-09-14T00:54:22.932Z,20.23
2018-09-14T00:59:28.188Z,23.93
2018-09-14T01:04:33.180Z,25.17
2018-09-14T01:09:38.190Z,22.17
2018-09-14T01:14:43.091Z,21.53
2018-09-14T01:19:48.060Z,28.00
2018-09-14T01:24:53.043Z,21.83
2018-09-14T01:29:57.952Z,22.83
2018-09-14T01:35:06.041Z,22.83
2018-09-14T01:40:11.075Z,26.80
2018-09-14T01:45:16.059Z,26.87
2018-09-14T01:50:21.056Z,23.77
2018-09-14T01:55:26.002Z,24.03
2018-09-14T02:00:30.935Z,32.93
2018-09-14T02:05:36.383Z,25.50
2018-09-14T02:10:41.592Z,25.47
2018-09-14T02:15:46.673Z,27.53
2018-09-14T02:20:51.825Z,27.63
2018-09-14T02:25:56.883Z,24.27
2018-09-14T02:31:02.100Z,25.83
2018-09-14T02:36:07.596Z,30.23
2018-09-14T02:41:12.747Z,34.50
2018-09-14T02:46:17.800Z,27.83
2018-09-14T02:51:23.073Z,34.77
2018-09-14T02:56:28.236Z,23.97
2018-09-14T03:01:33.432Z,28.60
2018-09-14T03:06:38.751Z,31.30
2018-09-14T03:11:44.127Z,31.30
2018-09-14T03:16:49.459Z,27.47
2018-09-14T03:21:54.648Z,31.10
2018-09-14T03:26:59.564Z,36.33
2018-09-14T03:32:04.843Z,33.80
2018-09-14T03:37:09.993Z,33.73
2018-09-14T03:42:15.104Z,43.73
2018-09-14T03:47:20.495Z,39.63
2018-09-14T03:52:25.776Z,39.83
2018-09-14T03:57:31.689Z,42.13
2018-09-14T04:02:36.713Z,46.80
2018-09-14T04:07:42.006Z,40.83
2018-09-14T04:12:47.168Z,44.40
2018-09-14T04:17:52.176Z,38.63
2018-09-14T04:22:57.122Z,41.70
2018-09-14T04:28:02.537Z,41.33
2018-09-14T04:33:07.609Z,47.10
2018-09-14T04:38:12.539Z,41.17
2018-09-14T04:43:17.651Z,40.07
2018-09-14T04:48:22.628Z,40.13
2018-09-14T04:53:27.806Z,39.67
2018-09-14T04:58:32.823Z,39.33
2018-09-14T05:03:37.788Z,43.37
2018-09-14T05:08:42.837Z,42.40
2018-09-14T05:13:47.900Z,40.27
2018-09-14T05:18:53.161Z,38.63
2018-09-14T05:23:58.266Z,39.47
2018-09-14T05:29:03.573Z,43.13
2018-09-14T05:34:08.899Z,39.50
2018-09-14T05:39:13.873Z,46.10
2018-09-14T05:44:18.949Z,44.50
2018-09-14T05:49:23.851Z,47.20
2018-09-14T05:54:29.121Z,39.63
2018-09-14T05:59:34.206Z,39.43
2018-09-14T06:04:40.231Z,39.37
2018-09-14T06:09:45.594Z,37.70
2018-09-14T06:14:50.692Z,39.20
2018-09-14T06:19:55.914Z,40.30
2018-09-14T06:25:00.843Z,35.03
2018-09-14T06:30:06.038Z,39.17
2018-09-14T06:35:11.089Z,42.27
2018-09-14T06:40:15.974Z,34.87
2018-09-14T06:45:21.263Z,48.43
2018-09-14T06:50:26.613Z,43.27
2018-09-14T06:55:32.062Z,39.20
2018-09-14T07:00:37.433Z,42.63
2018-09-14T07:05:43.114Z,49.67
2018-09-14T07:10:48.132Z,39.40
2018-09-14T07:15:53.391Z,32.87
2018-09-14T07:20:58.670Z,35.07
2018-09-14T07:26:03.922Z,32.17
2018-09-14T07:31:08.873Z,30.37
2018-09-14T07:36:14.958Z,28.77
2018-09-14T07:41:19.880Z,29.57
2018-09-14T07:46:25.311Z,27.93
2018-09-14T07:51:30.504Z,18.90
2018-09-14T07:56:35.716Z,15.90
2018-09-14T08:01:40.789Z,12.73
2018-09-14T08:06:45.845Z,20.53
2018-09-14T08:11:51.361Z,17.20
2018-09-14T08:16:57.257Z,19.93
2018-09-14T08:22:03.599Z,14.20
2018-09-14T08:27:08.624Z,14.03
2018-09-14T08:32:13.591Z,15.00
2018-09-14T08:37:18.589Z,10.83
2018-09-14T08:42:23.946Z,11.90
2018-09-14T08:47:28.847Z,9.10
2018-09-14T08:52:33.732Z,10.33
2018-09-14T08:57:38.865Z,13.70
2018-09-14T09:02:43.779Z,10.20
2018-09-14T09:07:48.981Z,13.40
2018-09-14T09:12:53.877Z,8.17
2018-09-14T09:17:59.216Z,13.40
2018-09-14T09:23:04.247Z,9.37
2018-09-14T09:28:09.324Z,13.10
2018-09-14T09:33:14.303Z,8.10
2018-09-14T09:38:19.234Z,12.47
2018-09-14T09:43:24.680Z,9.73
2018-09-14T09:48:29.771Z,11.20
2018-09-14T09:53:34.851Z,8.67
2018-09-14T09:58:39.944Z,8.47
2018-09-14T10:03:49.168Z,9.93
2018-09-14T10:08:55.702Z,10.07
2018-09-14T10:14:00.628Z,10.53
2018-09-14T10:19:06.454Z,11.33
2018-09-14T10:24:11.530Z,12.17
2018-09-14T10:29:16.959Z,15.07
2018-09-14T10:34:21.992Z,14.77
2018-09-14T10:39:27.142Z,11.13
2018-09-14T10:44:32.203Z,14.60
2018-09-14T10:49:38.372Z,10.37
2018-09-14T10:54:43.965Z,10.30
2018-09-14T10:59:49.310Z,15.97
2018-09-14T11:04:54.564Z,16.07
2018-09-14T11:10:01.982Z,10.75
2018-09-14T11:15:07.107Z,13.80
2018-09-14T11:20:12.393Z,9.58
2018-09-14T11:25:17.427Z,9.38
2018-09-14T11:30:22.368Z,10.10
2018-09-14T11:35:28.193Z,10.40
2018-09-14T11:40:33.451Z,9.60
2018-09-14T11:45:38.823Z,10.60
2018-09-14T11:50:43.910Z,11.95
2018-09-14T11:55:49.209Z,8.05
2018-09-14T12:00:54.569Z,12.43
2018-09-14T12:06:00.286Z,7.90
2018-09-14T12:11:05.644Z,10.45
2018-09-14T12:16:11.132Z,10.10
2018-09-14T12:21:16.862Z,12.43
2018-09-14T12:26:21.833Z,8.98
2018-09-14T12:31:27.258Z,16.57
2018-09-14T12:36:32.369Z,10.32
2018-09-14T12:41:38.141Z,9.65
2018-09-14T12:46:43.044Z,11.57
2018-09-14T12:51:48.275Z,10.75
2018-09-14T12:56:53.281Z,10.15
2018-09-14T13:01:58.450Z,18.98
2018-09-14T13:07:04.714Z,10.65
2018-09-14T13:12:09.988Z,10.45
2018-09-14T13:17:15.348Z,14.83
2018-09-14T13:22:20.338Z,14.58
2018-09-14T13:27:25.285Z,14.07
2018-09-14T13:32:30.279Z,14.45
2018-09-14T13:37:35.229Z,9.83
2018-09-14T13:42:40.136Z,12.80
2018-09-14T13:47:45.235Z,12.25
2018-09-14T13:52:50.227Z,12.20
2018-09-14T13:57:55.108Z,10.58
2018-09-14T14:03:01.221Z,9.80
2018-09-14T14:08:06.308Z,11.25
2018-09-14T14:13:11.446Z,14.20
2018-09-14T14:18:17.819Z,11.20
2018-09-14T14:23:22.934Z,12.85
2018-09-14T14:28:28.054Z,11.75
2018-09-14T14:33:33.237Z,10.53
2018-09-14T14:38:38.218Z,10.48
2018-09-14T14:43:43.121Z,13.45
2018-09-14T14:48:48.095Z,10.98
2018-09-14T14:53:53.180Z,12.75
2018-09-14T14:58:58.072Z,18.85
2018-09-14T15:04:03.103Z,14.75
2018-09-14T15:09:09.741Z,13.18
2018-09-14T15:14:16.350Z,8.45
2018-09-14T15:19:21.502Z,7.75
2018-09-14T15:24:26.572Z,9.90
2018-09-14T15:29:31.539Z,7.05
2018-09-14T15:34:36.423Z,5.62
2018-09-14T15:39:41.637Z,10.40
2018-09-14T15:44:46.631Z,7.87
2018-09-14T15:49:51.573Z,7.03
2018-09-14T15:54:56.516Z,9.28
2018-09-14T16:00:01.471Z,7.83
2018-09-14T16:05:06.656Z,9.30
2018-09-14T16:10:11.629Z,9.78
2018-09-14T16:15:16.782Z,10.23
2018-09-14T16:20:21.709Z,6.65
2018-09-14T16:25:26.707Z,8.43
2018-09-14T16:30:31.720Z,6.30
2018-09-14T16:35:37.247Z,12.30
2018-09-14T16:40:42.421Z,8.00
2018-09-14T16:45:47.497Z,9.80
2018-09-14T16:50:52.444Z,10.17
2018-09-14T16:55:57.439Z,8.77
2018-09-14T17:01:02.506Z,10.33
2018-09-14T17:06:07.614Z,12.37
2018-09-14T17:11:13.064Z,9.77
2018-09-14T17:16:18.780Z,11.47
2018-09-14T17:21:23.803Z,10.70
2018-09-14T17:26:29.219Z,9.33
2018-09-14T17:31:34.274Z,12.97
2018-09-14T17:36:39.207Z,10.03
2018-09-14T17:41:44.260Z,10.93
2018-09-14T17:46:49.209Z,12.67
2018-09-14T17:51:54.367Z,13.60
2018-09-14T17:56:59.682Z,8.47
2018-09-14T18:02:04.764Z,10.13
2018-09-14T18:07:10.624Z,11.00
2018-09-14T18:12:15.601Z,13.60
2018-09-14T18:17:20.579Z,10.13
2018-09-14T18:22:25.606Z,12.00
2018-09-14T18:27:30.863Z,18.03
2018-09-14T18:32:35.857Z,15.07
2018-09-14T18:37:40.744Z,10.37
2018-09-14T18:42:46.454Z,14.10
2018-09-14T18:47:51.534Z,14.87
2018-09-14T18:52:56.535Z,17.93
2018-09-14T18:58:01.689Z,14.13
2018-09-14T19:03:06.890Z,17.03
2018-09-14T19:08:11.850Z,11.40
2018-09-14T19:13:16.953Z,14.50
2018-09-14T19:18:21.951Z,13.70
2018-09-14T19:23:27.082Z,23.23
2018-09-14T19:28:31.939Z,16.43
2018-09-14T19:33:36.939Z,12.77
2018-09-14T19:38:42.167Z,17.47
2018-09-14T19:43:47.630Z,23.97
2018-09-14T19:48:52.573Z,18.83
2018-09-14T19:53:57.640Z,20.00
2018-09-14T19:59:02.696Z,17.10
2018-09-14T20:04:07.698Z,17.97
2018-09-14T20:09:14.882Z,17.13
2018-09-14T20:14:19.900Z,14.57
2018-09-14T20:19:24.904Z,15.77
2018-09-14T20:24:29.817Z,17.93
2018-09-14T20:29:35.364Z,19.53
2018-09-14T20:34:40.554Z,12.30
2018-09-14T20:39:45.614Z,15.73
2018-09-14T20:44:51.865Z,16.37
2018-09-14T20:49:56.839Z,17.90
2018-09-14T20:55:01.920Z,15.43
2018-09-14T21:00:07.164Z,13.03
2018-09-14T21:05:12.112Z,15.93
2018-09-14T21:10:17.053Z,15.37
2018-09-14T21:15:22.192Z,12.90
2018-09-14T21:20:27.094Z,15.83
2018-09-14T21:25:32.117Z,14.90
2018-09-14T21:30:37.103Z,15.07
2018-09-14T21:35:42.200Z,15.30
2018-09-14T21:40:47.280Z,64.53
2018-09-14T21:45:52.385Z,15.23
2018-09-14T21:50:57.416Z,15.77
2018-09-14T21:56:02.444Z,15.37
2018-09-14T22:01:12.796Z,21.30
2018-09-14T22:06:17.819Z,17.23
2018-09-14T22:11:22.865Z,14.33
2018-09-14T22:16:28.049Z,16.53
2018-09-14T22:21:33.052Z,15.30
2018-09-14T22:26:37.945Z,13.17
2018-09-14T22:31:43.098Z,12.23
2018-09-14T22:36:48.048Z,19.67
2018-09-14T22:41:52.964Z,21.00
2018-09-14T22:46:57.885Z,20.00
2018-09-14T22:52:02.861Z,14.13
2018-09-14T22:57:07.875Z,17.53
2018-09-14T23:02:12.842Z,15.87
2018-09-14T23:07:17.832Z,15.07
2018-09-14T23:12:22.943Z,15.00
2018-09-14T23:17:29.182Z,21.43
2018-09-14T23:22:40.574Z,13.43
2018-09-14T23:27:45.590Z,16.10
2018-09-14T23:32:50.608Z,12.77
2018-09-14T23:37:55.518Z,12.97
2018-09-14T23:43:00.432Z,17.43
2018-09-14T23:48:05.442Z,14.87
2018-09-14T23:53:10.490Z,17.77
2018-09-14T23:58:15.510Z,13.17
